createdAt,value
2022-08-31T00:01:53.689Z,2.10
2022-08-31T00:04:27.833Z,1.70
2022-08-31T00:07:00.404Z,2.10
2022-08-31T00:09:32.983Z,1.85
2022-08-31T00:12:05.568Z,2.10
2022-08-31T00:14:38.197Z,1.77
2022-08-31T00:17:10.649Z,2.10
2022-08-31T00:19:43.238Z,1.85
2022-08-31T00:22:15.620Z,1.70
2022-08-31T00:24:48.061Z,2.30
2022-08-31T00:27:21.889Z,1.92
2022-08-31T00:29:54.379Z,1.80
2022-08-31T00:32:28.970Z,1.83
2022-08-31T00:35:01.899Z,1.70
2022-08-31T00:37:34.416Z,1.60
2022-08-31T00:40:07.388Z,2.15
2022-08-31T00:42:40.486Z,1.90
2022-08-31T00:45:13.626Z,2.00
2022-08-31T00:47:46.040Z,1.77
2022-08-31T00:50:20.871Z,1.70
2022-08-31T00:52:59.609Z,1.67
2022-08-31T00:55:35.280Z,2.10
2022-08-31T00:58:11.605Z,1.73
2022-08-31T01:00:45.025Z,1.70
2022-08-31T01:03:18.427Z,1.77
2022-08-31T01:05:51.600Z,1.70
2022-08-31T01:08:30.802Z,1.70
2022-08-31T01:11:03.641Z,1.80
2022-08-31T01:13:37.411Z,1.75
2022-08-31T01:16:14.682Z,1.67
2022-08-31T01:18:48.373Z,1.88
2022-08-31T01:21:29.917Z,1.73
2022-08-31T01:24:04.748Z,2.08
2022-08-31T01:26:38.067Z,1.65
2022-08-31T01:29:10.535Z,1.75
2022-08-31T01:31:46.031Z,1.55
2022-08-31T01:36:52.008Z,1.85
2022-08-31T01:39:24.496Z,1.60
2022-08-31T01:41:57.046Z,1.63
2022-08-31T01:44:29.568Z,1.63
2022-08-31T01:47:02.062Z,1.48
2022-08-31T01:49:34.764Z,1.70
2022-08-31T01:52:07.596Z,1.58
2022-08-31T01:54:40.046Z,1.45
2022-08-31T01:57:12.463Z,1.70
2022-08-31T01:59:44.897Z,1.92
2022-08-31T02:02:17.560Z,1.83
2022-08-31T02:04:50.037Z,2.17
2022-08-31T02:07:22.508Z,1.70
2022-08-31T02:09:55.046Z,2.00
2022-08-31T02:12:27.495Z,1.70
2022-08-31T02:15:00.358Z,1.60
2022-08-31T02:17:32.898Z,1.80
2022-08-31T02:20:09.985Z,1.63
2022-08-31T02:22:42.809Z,1.95
2022-08-31T02:25:16.427Z,1.88
2022-08-31T02:27:48.844Z,1.90
2022-08-31T02:30:21.269Z,2.00
2022-08-31T02:32:53.760Z,1.70
2022-08-31T02:35:26.190Z,1.85
2022-08-31T02:37:58.592Z,1.90
2022-08-31T02:40:32.600Z,1.80
2022-08-31T02:43:05.792Z,1.80
2022-08-31T02:45:38.676Z,2.22
2022-08-31T02:48:12.248Z,1.95
2022-08-31T02:50:49.920Z,2.38
2022-08-31T02:53:23.205Z,2.00
2022-08-31T02:55:56.299Z,2.00
2022-08-31T02:58:28.832Z,1.70
2022-08-31T03:01:01.706Z,1.98
2022-08-31T03:03:34.967Z,2.28
2022-08-31T03:06:07.483Z,2.20
2022-08-31T03:08:42.138Z,1.70
2022-08-31T03:11:15.880Z,2.08
2022-08-31T03:13:48.487Z,1.77
2022-08-31T03:16:21.075Z,2.05
2022-08-31T03:18:53.923Z,2.10
2022-08-31T03:21:26.334Z,1.75
2022-08-31T03:23:58.759Z,2.10
2022-08-31T03:26:31.160Z,1.92
2022-08-31T03:29:03.968Z,2.13
2022-08-31T03:31:36.759Z,2.08
2022-08-31T03:34:09.220Z,2.33
2022-08-31T03:36:41.620Z,2.30
2022-08-31T03:39:14.143Z,1.90
2022-08-31T03:41:46.648Z,2.30
2022-08-31T03:44:21.660Z,1.75
2022-08-31T03:46:55.435Z,2.30
2022-08-31T03:49:29.012Z,1.80
2022-08-31T03:52:02.267Z,1.88
2022-08-31T03:54:35.531Z,2.00
2022-08-31T03:57:08.100Z,1.73
2022-08-31T03:59:40.520Z,1.60
2022-08-31T04:02:13.017Z,1.90
2022-08-31T04:04:52.486Z,1.80
2022-08-31T04:07:24.945Z,1.90
2022-08-31T04:09:57.603Z,1.80
2022-08-31T04:12:30.008Z,1.77
2022-08-31T04:15:03.011Z,2.08
2022-08-31T04:17:35.503Z,1.88
2022-08-31T04:20:08.511Z,1.67
2022-08-31T04:22:41.079Z,1.77
2022-08-31T04:25:13.472Z,1.55
2022-08-31T04:27:50.729Z,1.60
2022-08-31T04:30:23.731Z,1.83
2022-08-31T04:32:56.987Z,1.50
2022-08-31T04:35:30.708Z,2.10
2022-08-31T04:38:03.183Z,1.48
2022-08-31T04:40:38.816Z,1.50
2022-08-31T04:43:11.706Z,1.55
2022-08-31T04:45:46.082Z,1.58
2022-08-31T04:48:18.851Z,1.73
2022-08-31T04:50:51.257Z,1.67
2022-08-31T04:53:23.704Z,1.85
2022-08-31T04:55:56.937Z,1.58
2022-08-31T04:58:29.323Z,1.80
2022-08-31T05:01:01.822Z,1.55
2022-08-31T05:03:34.255Z,1.40
2022-08-31T05:06:12.193Z,1.50
2022-08-31T05:08:44.849Z,1.60
2022-08-31T05:11:23.020Z,1.55
2022-08-31T05:13:59.502Z,1.88
2022-08-31T05:16:33.550Z,1.50
2022-08-31T05:19:06.579Z,1.25
2022-08-31T05:21:41.377Z,1.27
2022-08-31T05:24:21.569Z,1.50
2022-08-31T05:26:56.016Z,1.42
2022-08-31T05:29:28.956Z,1.35
2022-08-31T05:32:01.506Z,1.50
2022-08-31T05:34:33.920Z,1.42
2022-08-31T05:37:06.368Z,1.65
2022-08-31T05:39:39.968Z,1.30
2022-08-31T05:42:15.360Z,1.40
2022-08-31T05:44:47.882Z,1.55
2022-08-31T05:47:20.263Z,1.17
2022-08-31T05:49:52.683Z,1.30
2022-08-31T05:52:25.275Z,1.30
2022-08-31T05:54:57.843Z,1.48
2022-08-31T05:57:30.312Z,1.20
2022-08-31T06:00:05.543Z,1.23
2022-08-31T06:02:39.706Z,1.35
2022-08-31T06:05:12.318Z,1.30
2022-08-31T06:07:46.946Z,1.15
2022-08-31T06:10:19.400Z,1.20
2022-08-31T06:12:52.040Z,1.13
2022-08-31T06:15:24.641Z,1.23
2022-08-31T06:17:57.602Z,1.13
2022-08-31T06:20:30.692Z,1.35
2022-08-31T06:23:04.088Z,1.20
2022-08-31T06:25:36.622Z,1.23
2022-08-31T06:28:14.872Z,1.30
2022-08-31T06:30:55.281Z,1.23
2022-08-31T06:33:29.385Z,1.52
2022-08-31T06:36:02.007Z,1.15
2022-08-31T06:38:35.270Z,1.35
2022-08-31T06:41:12.721Z,1.20
2022-08-31T06:43:45.726Z,0.80
2022-08-31T06:46:19.463Z,1.45
2022-08-31T06:48:56.630Z,1.30
2022-08-31T06:51:29.249Z,1.02
2022-08-31T06:54:27.510Z,1.40
2022-08-31T06:56:59.816Z,1.15
2022-08-31T06:59:33.312Z,1.13
2022-08-31T07:02:05.807Z,1.27
2022-08-31T07:04:39.556Z,1.25
2022-08-31T07:07:12.324Z,1.30
2022-08-31T07:09:44.748Z,1.33
2022-08-31T07:12:17.208Z,1.17
2022-08-31T07:14:54.697Z,1.00
2022-08-31T07:17:27.872Z,1.38
2022-08-31T07:20:00.298Z,1.20
2022-08-31T07:22:32.716Z,1.08
2022-08-31T07:25:05.872Z,1.23
2022-08-31T07:27:39.929Z,1.30
2022-08-31T07:30:12.748Z,1.20
2022-08-31T07:32:45.193Z,1.00
2022-08-31T07:35:18.486Z,1.20
2022-08-31T07:38:09.457Z,1.20
2022-08-31T07:41:00.239Z,1.30
2022-08-31T07:43:32.721Z,1.35
2022-08-31T07:46:06.677Z,1.10
2022-08-31T07:48:39.160Z,1.30
2022-08-31T07:51:15.110Z,1.13
2022-08-31T07:53:47.909Z,1.10
2022-08-31T07:56:22.091Z,1.25
2022-08-31T07:58:54.509Z,1.27
2022-08-31T08:01:32.573Z,1.27
2022-08-31T08:04:13.100Z,1.10
2022-08-31T08:06:45.488Z,1.45
2022-08-31T08:09:24.553Z,1.50
2022-08-31T08:12:01.836Z,1.40
2022-08-31T08:14:36.512Z,1.30
2022-08-31T08:17:09.108Z,1.50
2022-08-31T08:19:41.526Z,1.45
2022-08-31T08:22:19.316Z,1.50
2022-08-31T08:25:04.686Z,1.33
2022-08-31T08:27:39.364Z,1.17
2022-08-31T08:30:13.688Z,1.25
2022-08-31T08:32:47.715Z,1.70
2022-08-31T08:35:20.457Z,1.35
2022-08-31T08:37:59.347Z,1.52
2022-08-31T08:40:42.251Z,1.52
2022-08-31T08:43:17.991Z,1.30
2022-08-31T08:45:54.894Z,1.70
2022-08-31T08:48:32.646Z,1.55
2022-08-31T08:51:13.378Z,1.73
2022-08-31T08:53:51.104Z,1.48
2022-08-31T08:56:33.282Z,1.60
2022-08-31T08:59:10.588Z,1.40
2022-08-31T09:01:47.022Z,1.60
2022-08-31T09:04:51.582Z,1.60
2022-08-31T09:07:50.603Z,1.52
2022-08-31T09:10:30.148Z,2.05
2022-08-31T09:13:28.768Z,1.58
2022-08-31T09:16:10.278Z,1.65
2022-08-31T09:18:49.975Z,2.13
2022-08-31T09:21:29.516Z,2.03
2022-08-31T09:24:07.339Z,1.80
2022-08-31T09:27:20.062Z,1.92
2022-08-31T09:29:59.663Z,1.70
2022-08-31T09:32:35.551Z,1.83
2022-08-31T09:35:23.630Z,2.03
2022-08-31T09:38:02.747Z,2.20
2022-08-31T09:40:36.245Z,1.80
2022-08-31T09:43:22.197Z,1.90
2022-08-31T09:46:11.674Z,2.60
2022-08-31T09:48:51.843Z,2.05
2022-08-31T09:51:33.771Z,2.00
2022-08-31T09:54:26.390Z,2.22
2022-08-31T09:57:00.238Z,2.28
2022-08-31T09:59:51.516Z,2.17
2022-08-31T10:02:33.443Z,2.13
2022-08-31T10:05:23.573Z,2.20
2022-08-31T10:08:04.276Z,2.17
2022-08-31T10:10:39.364Z,2.40
2022-08-31T10:13:22.223Z,2.20
2022-08-31T10:16:02.608Z,2.20
2022-08-31T10:18:39.414Z,2.75
2022-08-31T10:21:24.990Z,2.33
2022-08-31T10:24:20.415Z,2.47
2022-08-31T10:27:02.792Z,1.90
2022-08-31T10:29:57.941Z,2.20
2022-08-31T10:32:47.309Z,2.40
2022-08-31T10:35:31.420Z,2.03
2022-08-31T10:38:20.093Z,2.20
2022-08-31T10:41:19.135Z,2.60
2022-08-31T10:44:08.445Z,2.10
2022-08-31T10:46:40.991Z,1.90
2022-08-31T10:49:13.826Z,2.72
2022-08-31T10:52:17.173Z,2.20
2022-08-31T10:55:15.010Z,2.13
2022-08-31T10:57:56.183Z,2.08
2022-08-31T11:00:45.605Z,2.00
2022-08-31T11:03:39.151Z,2.08
2022-08-31T11:06:23.601Z,2.33
2022-08-31T11:09:26.077Z,2.58
2022-08-31T11:12:18.348Z,2.08
2022-08-31T11:14:50.789Z,2.30
2022-08-31T11:17:41.453Z,2.58
2022-08-31T11:20:34.099Z,2.47
2022-08-31T11:23:43.817Z,1.73
2022-08-31T11:26:31.751Z,2.70
2022-08-31T11:29:24.880Z,2.00
2022-08-31T11:32:05.810Z,2.10
2022-08-31T11:34:47.403Z,2.13
2022-08-31T11:37:57.270Z,1.90
2022-08-31T11:40:41.990Z,2.08
2022-08-31T11:43:32.961Z,2.30
2022-08-31T11:46:27.211Z,2.05
2022-08-31T11:49:00.543Z,2.55
2022-08-31T11:51:43.101Z,2.42
2022-08-31T11:54:26.599Z,2.20
2022-08-31T11:56:59.036Z,1.88
2022-08-31T11:59:35.289Z,1.83
2022-08-31T12:02:20.149Z,2.10
2022-08-31T12:04:53.430Z,2.20
2022-08-31T12:07:30.283Z,2.15
2022-08-31T12:10:08.265Z,2.15
2022-08-31T12:12:58.875Z,1.95
2022-08-31T12:16:04.018Z,2.10
2022-08-31T12:18:58.679Z,2.17
2022-08-31T12:22:15.932Z,2.17
2022-08-31T12:24:55.999Z,1.70
2022-08-31T12:27:52.807Z,2.03
2022-08-31T12:30:27.656Z,2.30
2022-08-31T12:33:11.848Z,1.77
2022-08-31T12:35:46.297Z,3.67
2022-08-31T12:38:21.407Z,2.40
2022-08-31T12:40:55.660Z,1.75
2022-08-31T12:43:37.472Z,2.30
2022-08-31T12:46:12.736Z,1.98
2022-08-31T12:49:15.740Z,2.13
2022-08-31T12:52:07.311Z,1.83
2022-08-31T12:54:54.613Z,2.30
2022-08-31T12:57:49.850Z,2.17
2022-08-31T13:00:32.119Z,1.80
2022-08-31T13:03:25.256Z,1.83
2022-08-31T13:06:05.750Z,2.05
2022-08-31T13:08:45.029Z,1.95
2022-08-31T13:11:40.968Z,1.88
2022-08-31T13:14:20.876Z,1.60
2022-08-31T13:17:06.514Z,2.05
2022-08-31T13:19:43.721Z,1.70
2022-08-31T13:22:27.528Z,2.10
2022-08-31T13:25:36.858Z,2.10
2022-08-31T13:28:15.209Z,1.85
2022-08-31T13:31:03.491Z,1.90
2022-08-31T13:33:40.606Z,1.90
2022-08-31T13:36:36.523Z,1.70
2022-08-31T13:39:16.862Z,1.80
2022-08-31T13:42:10.947Z,1.60
2022-08-31T13:44:44.056Z,1.70
2022-08-31T13:47:23.101Z,1.77
2022-08-31T13:50:13.057Z,1.65
2022-08-31T13:53:25.268Z,1.40
2022-08-31T13:55:51.893Z,1.70
2022-08-31T13:58:29.799Z,1.85
2022-08-31T14:01:32.708Z,1.88
2022-08-31T14:04:05.185Z,2.05
2022-08-31T14:06:39.178Z,1.90
2022-08-31T14:09:17.344Z,2.00
2022-08-31T14:11:53.469Z,1.92
2022-08-31T14:14:29.766Z,1.95
2022-08-31T14:17:03.304Z,2.05
2022-08-31T14:19:38.626Z,1.65
2022-08-31T14:22:40.107Z,1.80
2022-08-31T14:25:19.879Z,1.60
2022-08-31T14:27:52.300Z,1.50
2022-08-31T14:30:24.693Z,2.08
2022-08-31T14:32:58.081Z,1.58
2022-08-31T14:35:30.480Z,2.05
2022-08-31T14:38:02.919Z,1.88
2022-08-31T14:40:36.416Z,1.90
2022-08-31T14:43:13.211Z,1.77
2022-08-31T14:45:45.723Z,1.75
2022-08-31T14:48:19.168Z,1.67
2022-08-31T14:50:51.683Z,1.77
2022-08-31T14:53:24.243Z,2.10
2022-08-31T14:55:56.819Z,1.95
2022-08-31T14:58:34.120Z,1.85
2022-08-31T15:01:07.350Z,1.80
2022-08-31T15:03:43.559Z,1.88
2022-08-31T15:06:19.633Z,1.60
2022-08-31T15:08:52.056Z,1.70
2022-08-31T15:11:24.922Z,1.90
2022-08-31T15:13:57.691Z,1.80
2022-08-31T15:16:30.830Z,1.77
2022-08-31T15:19:04.340Z,1.73
2022-08-31T15:21:42.017Z,1.60
2022-08-31T15:24:19.737Z,1.60
2022-08-31T15:29:30.145Z,1.70
2022-08-31T15:32:03.056Z,1.65
2022-08-31T15:34:37.015Z,1.80
2022-08-31T15:37:09.491Z,1.75
2022-08-31T15:39:43.414Z,1.65
2022-08-31T15:42:20.187Z,1.48
2022-08-31T15:44:58.837Z,2.10
2022-08-31T15:47:54.751Z,1.65
2022-08-31T15:50:31.698Z,1.40
2022-08-31T15:53:09.925Z,1.48
2022-08-31T15:55:44.649Z,1.60
2022-08-31T15:58:24.464Z,1.30
2022-08-31T16:00:58.069Z,1.40
2022-08-31T16:03:34.736Z,1.48
2022-08-31T16:06:11.337Z,1.40
2022-08-31T16:08:43.746Z,1.33
2022-08-31T16:11:16.218Z,1.45
2022-08-31T16:13:58.584Z,1.80
2022-08-31T16:16:36.858Z,1.55
2022-08-31T16:19:19.478Z,1.50
2022-08-31T16:22:07.536Z,1.42
2022-08-31T16:24:40.506Z,1.35
2022-08-31T16:27:17.466Z,1.08
2022-08-31T16:29:50.857Z,1.45
2022-08-31T16:32:26.564Z,1.35
2022-08-31T16:34:59.470Z,1.50
2022-08-31T16:37:32.786Z,1.17
2022-08-31T16:40:05.802Z,1.27
2022-08-31T16:42:38.497Z,1.40
2022-08-31T16:45:11.567Z,1.23
2022-08-31T16:47:43.952Z,1.40
2022-08-31T16:50:16.823Z,1.63
2022-08-31T16:52:50.902Z,1.40
2022-08-31T16:55:23.327Z,1.20
2022-08-31T16:57:55.740Z,1.60
2022-08-31T17:00:31.450Z,1.15
2022-08-31T17:03:07.020Z,1.38
2022-08-31T17:05:40.888Z,1.00
2022-08-31T17:08:14.642Z,1.42
2022-08-31T17:10:49.743Z,1.40
2022-08-31T17:13:22.276Z,1.27
2022-08-31T17:15:54.842Z,1.40
2022-08-31T17:18:27.710Z,1.70
2022-08-31T17:21:00.351Z,1.45
2022-08-31T17:23:35.152Z,2.58
2022-08-31T17:26:07.522Z,1.30
2022-08-31T17:28:39.944Z,1.63
2022-08-31T17:31:12.670Z,1.30
2022-08-31T17:33:45.107Z,2.15
2022-08-31T17:36:20.009Z,1.45
2022-08-31T17:38:54.868Z,1.30
2022-08-31T17:41:29.273Z,1.20
2022-08-31T17:44:01.859Z,1.33
2022-08-31T17:46:35.357Z,1.38
2022-08-31T17:49:08.223Z,1.15
2022-08-31T17:51:43.138Z,1.30
2022-08-31T17:54:18.764Z,1.40
2022-08-31T17:56:55.974Z,1.10
2022-08-31T17:59:34.537Z,1.10
2022-08-31T18:02:34.403Z,1.17
2022-08-31T18:05:11.816Z,1.50
2022-08-31T18:07:45.871Z,1.33
2022-08-31T18:10:18.674Z,1.48
2022-08-31T18:12:51.067Z,1.40
2022-08-31T18:15:23.540Z,1.30
2022-08-31T18:17:56.140Z,1.27
2022-08-31T18:20:28.795Z,1.30
2022-08-31T18:23:01.422Z,1.30
2022-08-31T18:25:36.897Z,1.25
2022-08-31T18:28:09.515Z,1.30
2022-08-31T18:30:41.922Z,1.50
2022-08-31T18:33:15.020Z,1.60
2022-08-31T18:35:51.005Z,1.55
2022-08-31T18:38:23.436Z,1.52
2022-08-31T18:41:14.413Z,1.20
2022-08-31T18:44:05.305Z,1.38
2022-08-31T18:46:37.897Z,1.40
2022-08-31T18:49:12.542Z,1.17
2022-08-31T18:51:46.222Z,3.10
2022-08-31T18:54:20.336Z,1.30
2022-08-31T18:56:52.731Z,1.73
2022-08-31T18:59:25.587Z,1.38
2022-08-31T19:01:58.298Z,1.30
2022-08-31T19:04:32.072Z,1.58
2022-08-31T19:07:06.412Z,1.73
2022-08-31T19:09:39.846Z,1.50
2022-08-31T19:12:16.171Z,1.60
2022-08-31T19:14:50.364Z,1.58
2022-08-31T19:17:23.276Z,1.95
2022-08-31T19:19:55.958Z,1.80
2022-08-31T19:22:28.398Z,1.77
2022-08-31T19:25:00.981Z,1.90
2022-08-31T19:27:34.725Z,1.70
2022-08-31T19:30:08.166Z,1.55
2022-08-31T19:32:41.508Z,1.70
2022-08-31T19:35:15.683Z,1.75
2022-08-31T19:37:51.592Z,1.77
2022-08-31T19:40:35.492Z,1.67
2022-08-31T19:46:16.216Z,1.95
2022-08-31T19:48:49.784Z,1.42
2022-08-31T19:51:23.530Z,1.60
2022-08-31T19:53:56.879Z,1.52
2022-08-31T19:56:32.133Z,1.75
2022-08-31T20:01:39.301Z,1.58
2022-08-31T20:04:16.671Z,1.42
2022-08-31T20:06:49.876Z,1.60
2022-08-31T20:09:25.450Z,1.73
2022-08-31T20:11:59.846Z,1.80
2022-08-31T20:14:32.360Z,1.50
2022-08-31T20:17:05.014Z,1.40
2022-08-31T20:19:39.439Z,1.35
2022-08-31T20:22:13.414Z,1.48
2022-08-31T20:24:45.801Z,1.52
2022-08-31T20:27:19.576Z,1.58
2022-08-31T20:29:53.400Z,1.92
2022-08-31T20:32:25.851Z,3.10
2022-08-31T20:34:58.800Z,2.13
2022-08-31T20:37:31.671Z,1.27
2022-08-31T20:40:04.389Z,2.83
2022-08-31T20:42:37.208Z,1.90
2022-08-31T20:45:09.980Z,2.30
2022-08-31T20:48:00.994Z,2.10
2022-08-31T20:50:35.230Z,2.50
2022-08-31T20:53:08.796Z,1.90
2022-08-31T20:55:41.289Z,2.03
2022-08-31T20:58:14.542Z,2.25
2022-08-31T21:00:47.669Z,1.67
2022-08-31T21:03:20.353Z,2.20
2022-08-31T21:05:53.041Z,2.22
2022-08-31T21:08:26.123Z,1.90
2022-08-31T21:10:58.507Z,1.70
2022-08-31T21:13:31.217Z,1.48
2022-08-31T21:16:03.908Z,1.40
2022-08-31T21:18:37.356Z,1.42
2022-08-31T21:21:15.184Z,1.55
2022-08-31T21:23:47.996Z,1.20
2022-08-31T21:26:24.416Z,1.30
2022-08-31T21:28:56.853Z,1.00
2022-08-31T21:31:29.996Z,1.30
2022-08-31T21:34:02.970Z,1.40
2022-08-31T21:36:38.453Z,1.10
2022-08-31T21:41:45.833Z,1.30
2022-08-31T21:44:20.801Z,1.10
2022-08-31T21:46:53.500Z,1.05
2022-08-31T21:49:26.016Z,1.00
2022-08-31T21:51:59.709Z,1.10
2022-08-31T21:54:32.192Z,1.23
2022-08-31T21:57:04.667Z,0.85
2022-08-31T21:59:37.166Z,0.70
2022-08-31T22:02:11.555Z,1.00
2022-08-31T22:04:44.497Z,0.88
2022-08-31T22:07:17.184Z,0.90
2022-08-31T22:09:49.568Z,0.88
2022-08-31T22:12:25.134Z,0.85
2022-08-31T22:14:58.650Z,1.02
2022-08-31T22:17:55.869Z,0.75
2022-08-31T22:20:24.675Z,0.90
2022-08-31T22:22:58.164Z,0.73
2022-08-31T22:25:33.390Z,0.82
2022-08-31T22:28:06.123Z,0.65
2022-08-31T22:30:38.768Z,0.80
2022-08-31T22:33:11.752Z,1.00
2022-08-31T22:35:44.477Z,1.30
2022-08-31T22:38:17.176Z,1.00
2022-08-31T22:40:50.025Z,1.20
2022-08-31T22:43:22.839Z,0.93
2022-08-31T22:45:55.283Z,1.17
2022-08-31T22:48:27.771Z,1.00
2022-08-31T22:51:09.128Z,0.88
2022-08-31T22:53:44.395Z,1.00
2022-08-31T22:56:25.512Z,0.90
2022-08-31T22:59:00.555Z,1.15
2022-08-31T23:01:47.408Z,1.13
2022-08-31T23:04:20.878Z,1.08
2022-08-31T23:06:56.079Z,0.93
2022-08-31T23:09:30.833Z,0.80
2022-08-31T23:12:04.743Z,0.80
2022-08-31T23:14:41.045Z,0.63
2022-08-31T23:17:13.744Z,1.02
2022-08-31T23:19:46.675Z,0.80
2022-08-31T23:22:19.351Z,0.75
2022-08-31T23:24:59.682Z,0.90
2022-08-31T23:27:32.674Z,0.80
2022-08-31T23:30:08.608Z,0.70
2022-08-31T23:32:44.535Z,0.80
2022-08-31T23:35:19.740Z,1.00
2022-08-31T23:37:54.247Z,0.70
2022-08-31T23:40:30.609Z,0.80
2022-08-31T23:43:04.656Z,0.80
2022-08-31T23:45:37.915Z,0.95
2022-08-31T23:48:10.367Z,0.93
2022-08-31T23:50:42.836Z,0.95
2022-08-31T23:53:17.353Z,0.73
2022-08-31T23:55:49.768Z,0.75
2022-08-31T23:58:22.276Z,0.80
